Flight Track Log - Related Links

Times and Time Zones

All times are in EDT time to prevent confusion due to time zone crossing. See the N414NW flight status page for this flight to view local times or setup timezone preferences in your user account.


Time Position Orientation Groundspeed Altitude Reporting Facility
EDT Latitude Longitude Course Direction KTS MPH feet Rate Location/Type
Fri 02:27:09 PM 33.7833 -84.5500 239° Southwest 103 119 1,900  Level Atlanta TRACON
Fri 02:28:09 PM 33.7667 -84.5833 239° Southwest 115 132 2,900 579 Climbing Atlanta TRACON
Fri 02:29:03 PM 33.7833 -84.6333 292° West 151 174 3,000 53 Climbing Atlanta TRACON
Fri 02:30:03 PM 33.7667 -84.6833 248° West 173 199 3,000  Level Atlanta TRACON
Fri 02:30:58 PM 33.7667 -84.7333 270° West 171 197 3,000 347 Level Atlanta TRACON
Fri 02:32:04 PM 33.7667 -84.7833 270° West 149 171 3,700 476 Climbing Atlanta TRACON
Fri 02:33:04 PM 33.7667 -84.8333 270° West 160 184 4,000 550 Climbing Atlanta TRACON
Fri 02:34:04 PM 33.7667 -84.8833 270° West 147 169 4,800 757 Climbing Atlanta TRACON
Fri 02:34:55 PM 33.7597 -84.9333 261° West 139 160 5,400 811 Climbing Atlanta Center
Fri 02:35:55 PM 33.7594 -84.9708 269° West 122 140 6,300 900 Climbing Atlanta Center
Fri 02:36:55 PM 33.7592 -85.0058 269° West 122 140 7,200 950 Climbing Atlanta Center
Fri 02:37:55 PM 33.7611 -85.0383 274° West 111 128 8,200 1,000 Climbing Atlanta Center
Fri 02:38:55 PM 33.7628 -85.0758 273° West 111 128 9,200 850 Climbing Atlanta Center
Fri 02:39:55 PM 33.7644 -85.1108 273° West 101 116 9,900 400 Climbing Atlanta Center
Fri 02:40:55 PM 33.7642 -85.1558 270° West 125 144 10,000 50 Climbing Atlanta Center
Fri 02:41:55 PM 33.7658 -85.2083 272° West 149 171 10,000  Level Atlanta Center
Fri 02:42:55 PM 33.7672 -85.2633 272° West 160 184 10,000  Level Atlanta Center
Fri 02:43:55 PM 33.7794 -85.3108 287° West 160 184 10,000  Level Atlanta Center
Fri 02:44:55 PM 33.8039 -85.3564 303° West 155 178 10,000  Level Atlanta Center
Fri 02:45:55 PM 33.8286 -85.3992 305° West 155 178 10,000  Level Atlanta Center
Fri 02:46:55 PM 33.8531 -85.4419 305° West 155 178 10,000  Level Atlanta Center
Fri 02:47:55 PM 33.8756 -85.4850 302° West 160 184 10,000  Level Atlanta Center
Fri 02:48:55 PM 33.9022 -85.5306 305° West 160 184 10,000  Level Atlanta Center
Fri 02:49:55 PM 33.9203 -85.5733 297° West 160 184 10,000  Level Atlanta Center
Fri 02:50:55 PM 33.9489 -85.6189 307° West 160 184 10,000  Level Atlanta Center
Fri 02:51:55 PM 33.9694 -85.6569 303° West 160 184 10,000  Level Atlanta Center
Fri 02:52:55 PM 33.9917 -85.7025 300° West 160 184 10,000  Level Atlanta Center
Fri 02:53:55 PM 34.0161 -85.7456 304° West 160 184 10,000  Level Atlanta Center
Fri 02:54:55 PM 34.0406 -85.7911 303° West 165 190 10,000  Level Atlanta Center
Fri 02:55:55 PM 34.0692 -85.8394 306° West 154 177 10,000  Level Atlanta Center
Fri 02:56:55 PM 34.0894 -85.8850 298° West 160 184 10,000  Level Atlanta Center
Fri 02:57:55 PM 34.1158 -85.9281 307° West 165 190 10,000  Level Atlanta Center
Fri 02:58:55 PM 34.1361 -85.9739 298° West 165 190 10,000  Level Atlanta Center
Fri 02:59:55 PM 34.1625 -86.0194 305° West 165 190 10,000  Level Atlanta Center
Fri 03:00:55 PM 34.1847 -86.0628 302° West 165 190 10,000  Level Atlanta Center
Fri 03:01:55 PM 34.2069 -86.1061 302° West 165 190 10,000  Level Atlanta Center
Fri 03:02:55 PM 34.2333 -86.1519 305° West 165 190 10,000  Level Atlanta Center
Fri 03:04:00 PM 34.2652 -86.1803 301° West  Level FlightAware Approximate
Fri 03:11:00 PM 34.4162 -86.4902 300° West  Level FlightAware Approximate
Fri 03:12:00 PM 34.4374 -86.5348 300° West  Level FlightAware Approximate
Fri 03:13:00 PM 34.4586 -86.5794 300° West  Level FlightAware Approximate
Fri 03:14:00 PM 34.4798 -86.6240 300° West  Level FlightAware Approximate
Fri 03:15:00 PM 34.5010 -86.6686 303° West  Level FlightAware Approximate
Fri 03:16:00 PM 34.5243 -86.7117 303° West  Level FlightAware Approximate
Fri 03:17:00 PM 34.5475 -86.7548 303° West  Level FlightAware Approximate
Fri 03:18:00 PM 34.5708 -86.7979 303° West  Level FlightAware Approximate

Login

Don't have an account? Register now (free) for customized features, flight alerts, and more!